Latest Weather Observations for Cobar

IDN60801

Issued at 10:32 am EST Monday 25 September 2017 (issued every 30 minutes, with the page automatically refreshed every 10 minutes)

About weather observations | Map of weather stations | Latest weather observations for NSW | Other Formats
Station Details ID: 048027 Name: COBAR MO Lat: -31.48 Lon: 145.83 Height: 260.0 m
Data from the previous 72 hours. | See also: Recent months at Cobar
Date/Time
EST
Temp
°C
App
Temp
°C
Dew
Point
°C
Rel
Hum
%
Delta-T
°C
Wind Press
QNH
hPa
Press
MSL
hPa
Rain since
9am
mm
Dir  Spd
km/h
Gust
km/h
Spd
kts
Gust
kts
25/10:30am 21.0 16.7 0.8 26 9.3 SW 13 24 7 13 1014.1 1013.7 0.0
25/10:00am 19.9 16.8 0.4 27 8.8 WSW 6 11 3 6 1014.1 1013.7 0.0
25/09:30am 18.7 13.5 -0.2 28 8.3 SSE 17 28 9 15 1013.7 1013.3 0.0
25/09:00am 17.7 13.2 -0.5 29 7.9 SE 13 17 7 9 1013.7 1013.3 0.0
25/08:30am 16.9 12.0 -0.3 31 7.5 SSE 15 20 8 11 1013.8 1013.4 0.0
25/08:00am 16.0 11.4 -0.7 32 7.1 SSE 13 17 7 9 1013.6 1013.2 0.0
25/07:30am 14.5 10.3 -1.2 34 6.5 S 11 15 6 8 1013.1 1012.7 0.0
25/07:00am 12.9 9.4 -1.4 37 5.8 SSW 7 11 4 6 1013.0 1012.6 0.0
25/06:30am 11.5 7.5 -2.0 39 5.3 SSW 9 11 5 6 1012.8 1012.4 0.0
25/06:00am 11.3 7.3 -2.1 39 5.3 SSW 9 13 5 7 1012.4 1012.0 0.0
25/05:30am 11.4 7.4 -2.4 38 5.4 SSW 9 13 5 7 1012.2 1011.9 0.0
25/05:00am 12.4 8.0 -2.6 35 5.9 SW 11 15 6 8 1011.8 1011.4 0.0
25/04:30am 12.6 8.2 -2.8 34 6.1 SW 11 15 6 8 1011.2 1010.8 0.0
25/04:00am 13.1 8.6 -3.2 32 6.4 SW 11 15 6 8 1010.6 1010.2 0.0
25/03:30am 14.2 9.7 -3.6 29 7.0 SW 11 15 6 8 1010.2 1009.8 0.0
25/03:00am 15.4 10.1 -3.5 27 7.6 SW 15 20 8 11 1010.0 1009.6 0.0
25/02:30am 16.7 11.0 -3.4 25 8.1 WSW 17 20 9 11 1009.7 1009.3 0.0
25/02:00am 15.9 11.9 -2.6 28 7.6 WNW 9 11 5 6 1009.3 1008.9 0.0
25/01:30am 16.0 11.6 -2.5 28 7.6 WNW 11 13 6 7 1009.0 1008.6 0.0
25/01:00am 15.7 12.0 -2.7 28 7.5 WNW 7 9 4 5 1008.8 1008.4 0.0
25/12:30am 17.7 13.7 -2.0 26 8.3 WSW 9 11 5 6 1008.7 1008.3 0.0
25/12:00am 17.9 13.1 -2.4 25 8.5 WSW 13 15 7 8 1008.4 1007.9 0.0
 
Date/Time
EST
Temp
°C
App
Temp
°C
Dew
Point
°C
Rel
Hum
%
Delta-T
°C
Wind Press
QNH
hPa
Press
MSL
hPa
Rain since
9am
mm
Dir  Spd
km/h
Gust
km/h
Spd
kts
Gust
kts
24/11:30pm 19.4 14.6 -2.2 23 9.2 WSW 13 17 7 9 1008.4 1007.9 0.0
24/11:00pm 20.3 15.6 -2.1 22 9.7 W 13 17 7 9 1008.4 1007.9 0.0
24/10:30pm 21.2 16.2 -1.3 22 9.9 W 15 19 8 10 1008.5 1008.0 0.0
24/10:00pm 21.9 16.6 -0.8 22 10.2 W 17 28 9 15 1008.4 1007.9 0.0
24/09:30pm 20.7 16.2 -0.6 24 9.5 WNW 13 17 7 9 1008.1 1007.7 0.0
24/09:24pm 20.7 15.9 0.0 25 9.3 NW 15 17 8 9 1008.0 1007.6 0.0
24/09:07pm 20.2 16.1 -0.4 25 9.2 NW 11 13 6 7 1007.7 1007.3 0.0
24/09:00pm 20.4 16.2 -0.8 24 9.4 NW 11 13 6 7 1007.6 1007.2 0.0
24/08:30pm 20.7 16.5 -0.6 24 9.5 NNW 11 11 6 6 1007.3 1006.9 0.0
24/08:00pm 22.2 18.4 -1.1 21 10.4 NW 9 11 5 6 1007.0 1006.6 0.0
24/07:30pm 24.2 19.2 -0.9 19 11.4 NW 15 20 8 11 1006.7 1006.3 0.0
24/07:00pm 24.7 20.1 -1.2 18 11.8 NW 13 19 7 10 1006.3 1005.9 0.0
24/06:30pm 25.5 20.1 -1.3 17 12.2 WNW 17 28 9 15 1005.9 1005.5 0.0
24/06:00pm 26.1 21.8 -1.7 16 12.7 WNW 11 17 6 9 1005.7 1005.3 0.0
24/05:30pm 27.2 21.2 -1.7 15 13.3 WNW 20 35 11 19 1005.7 1005.3 0.0
24/05:00pm 27.9 21.8 -2.0 14 13.8 WNW 20 32 11 17 1005.5 1005.1 0.0
24/04:30pm 28.5 21.6 -2.6 13 14.2 NW 24 35 13 19 1005.4 1005.0 0.0
24/04:00pm 28.7 21.8 -2.4 13 14.3 WNW 24 37 13 20 1005.4 1005.0 0.0
24/03:30pm 28.7 21.1 -2.4 13 14.3 WNW 28 46 15 25 1005.7 1005.3 0.0
24/03:00pm 28.4 21.6 -1.6 14 14.0 W 24 37 13 20 1005.9 1005.5 0.0
24/02:30pm 28.2 21.0 -1.8 14 13.9 W 26 39 14 21 1006.2 1005.8 0.0
24/02:00pm 28.7 22.9 -1.4 14 14.1 WNW 19 33 10 18 1006.4 1006.0 0.0
24/01:30pm 28.2 22.9 -0.9 15 13.7 NW 17 30 9 16 1006.8 1006.4 0.0
24/01:00pm 27.3 23.1 -0.7 16 13.1 WNW 11 20 6 11 1007.1 1006.7 0.0
24/12:30pm 25.5 21.6 -1.3 17 12.2 SSW 9 20 5 11 1007.9 1007.5 0.0
24/12:00pm 24.3 21.0 -0.1 20 11.3 SSW 7 11 4 6 1008.6 1008.1 0.0
24/11:30am 23.1 19.4 0.2 22 10.6 S 9 15 5 8 1009.1 1008.7 0.0
24/11:00am 23.2 19.8 -0.3 21 10.8 E 7 9 4 5 1009.3 1008.9 0.0
24/10:30am 21.5 18.2 0.1 24 9.7 SSE 7 13 4 7 1009.3 1008.9 0.0
24/10:00am 20.9 17.2 0.2 25 9.4 SE 9 15 5 8 1009.3 1008.9 0.0
24/09:30am 20.3 17.0 0.2 26 9.1 SE 7 11 4 6 1009.1 1008.7 0.0
24/09:00am 19.9 16.3 0.4 27 8.8 E 9 13 5 7 1009.7 1009.3 0.0
24/08:30am 19.4 15.3 -0.1 27 8.7 E 11 19 6 10 1009.5 1009.1 0.0
24/08:00am 19.2 14.4 0.3 28 8.5 E 15 22 8 12 1008.5 1008.0 0.0
24/07:30am 18.5 13.7 0.2 29 8.1 ESE 15 20 8 11 1007.8 1007.4 0.0
24/07:00am 18.2 13.8 0.4 30 7.9 ESE 13 17 7 9 1008.2 1007.8 0.0
24/06:30am 18.2 14.6 0.4 30 7.9 S 9 13 5 7 1008.7 1008.3 0.0
24/06:10am 18.0 13.7 1.1 32 7.6 SSW 13 24 7 13 1007.3 1006.9 0.0
24/06:00am 18.3 14.6 0.0 29 8.1 SSW 9 13 5 7 1009.7 1009.3 0.0
24/05:30am 18.8 14.6 -0.6 27 8.5 SSW 11 15 6 8 1008.6 1008.1 0.0
24/05:00am 18.9 15.0 -1.5 25 8.8 S 9 15 5 8 1007.8 1007.4 0.0
24/04:30am 19.6 15.3 -1.5 24 9.1 S 11 15 6 8 1006.9 1006.5 0.0
24/04:00am 20.5 15.0 -1.9 22 9.7 S 17 22 9 12 1006.6 1006.2 0.0
24/03:30am 21.3 14.6 -1.3 22 10.0 SSW 24 39 13 21 1005.9 1005.5 0.0
24/03:00am 22.4 15.6 0.9 24 10.0 SSW 26 39 14 21 1005.4 1005.0 0.0
24/02:30am 24.8 18.6 -0.4 19 11.6 SW 22 35 12 19 1005.2 1004.7 0.0
24/02:00am 25.7 20.0 -0.4 18 12.2 WSW 19 28 10 15 1005.0 1004.5 0.0
24/01:30am 25.8 21.1 -1.9 16 12.5 W 13 17 7 9 1005.0 1004.5 0.0
24/01:00am 27.4 21.5 -2.4 14 13.6 W 19 32 10 17 1004.7 1004.2 0.0
24/12:30am 27.4 22.1 -3.4 13 13.7 W 15 20 8 11 1004.8 1004.3 0.0
24/12:00am 26.5 21.5 -4.1 13 13.4 NW 13 15 7 8 1004.2 1003.8 0.0
 
Date/Time
EST
Temp
°C
App
Temp
°C
Dew
Point
°C
Rel
Hum
%
Delta-T
°C
Wind Press
QNH
hPa
Press
MSL
hPa
Rain since
9am
mm
Dir  Spd
km/h
Gust
km/h
Spd
kts
Gust
kts
23/11:30pm 27.2 22.5 -4.6 12 13.9 NNW 11 11 6 6 1003.9 1003.5 0.0
23/11:00pm 28.5 23.7 -6.0 10 14.9 WNW 11 13 6 7 1003.6 1003.2 0.0
23/10:30pm 30.2 25.0 -6.1 9 15.8 WNW 13 22 7 12 1003.8 1003.4 0.0
23/10:00pm 31.4 25.0 -6.8 8 16.7 W 19 26 10 14 1003.7 1003.3 0.0
23/09:30pm 32.1 26.0 -8.0 7 17.2 WNW 17 24 9 13 1003.5 1003.1 0.0
23/09:00pm 33.2 26.4 -9.2 6 18.1 WNW 20 30 11 16 1003.2 1002.8 0.0
23/08:30pm 33.6 26.8 -8.9 6 18.2 NW 20 32 11 17 1002.9 1002.5 0.0
23/08:00pm 33.3 27.1 -9.1 6 18.1 NW 17 28 9 15 1002.4 1002.0 0.0
23/07:30pm 33.3 27.1 -9.1 6 18.0 NW 17 24 9 13 1002.0 1001.5 0.0
23/07:00pm 34.7 27.8 -10.4 5 19.1 NW 20 33 11 18 1001.7 1001.2 0.0
23/06:30pm 35.3 27.7 -10.0 5 19.3 NW 24 33 13 18 1001.4 1000.9 0.0
23/06:00pm 35.7 27.7 -9.7 5 19.6 NW 26 41 14 22 1001.2 1000.7 0.0
23/05:32pm 36.0 27.7 -9.5 5 19.7 NW 28 46 15 25 1001.0 1000.5 0.0
23/05:30pm 36.1 27.4 -9.4 5 19.7 NW 30 41 16 22 1001.0 1000.5 0.0
23/05:03pm 36.4 26.8 -9.2 5 19.9 NW 35 54 19 29 1001.0 1000.5 0.0
23/05:00pm 36.6 26.6 -9.1 5 20.1 NW 37 54 20 29 1001.0 1000.5 0.0
23/04:30pm 36.7 27.1 -9.0 5 20.0 NW 35 56 19 30 1001.0 1000.5 0.0
23/04:01pm 36.8 27.7 -9.0 5 20.1 NW 32 52 17 28 1001.2 1000.7 0.0
23/04:00pm 36.8 27.6 -9.0 5 20.2 NW 33 48 18 26 1001.2 1000.7 0.0
23/03:30pm 37.5 28.3 -8.5 5 20.4 NW 33 52 18 28 1001.2 1000.7 0.0
23/03:09pm 37.3 26.2 -8.6 5 20.3 NW 43 69 23 37 1001.5 1001.0 0.0
23/03:00pm 38.2 26.7 -10.8 4 21.2 NW 44 69 24 37 1001.6 1001.1 0.0
23/02:50pm 38.3 26.1 -10.7 4 21.2 NNW 48 70 26 38 1001.6 1001.1 0.0
23/02:30pm 37.8 27.9 -8.3 5 20.6 NNW 37 57 20 31 1001.9 1001.4 0.0
23/02:00pm 37.1 27.1 -8.7 5 20.3 NW 37 65 20 35 1002.4 1002.0 0.0
23/01:31pm 37.1 28.1 -8.7 5 20.2 NW 32 50 17 27 1003.0 1002.6 0.0
23/01:30pm 37.0 27.8 -8.8 5 20.2 NW 33 50 18 27 1003.1 1002.7 0.0
23/01:01pm 36.5 26.5 -9.2 5 19.9 NW 37 56 20 30 1003.6 1003.2 0.0
23/01:00pm 36.2 25.8 -9.4 5 19.8 NW 39 56 21 30 1003.7 1003.3 0.0
23/12:39pm 36.9 26.9 -8.9 5 20.1 NW 37 63 20 34 1004.0 1003.6 0.0
23/12:38pm 37.2 27.2 -8.7 5 20.3 NW 37 54 20 29 1004.0 1003.6 0.0
23/12:30pm 37.0 25.9 -8.8 5 20.2 NNW 43 63 23 34 1004.1 1003.7 0.0
23/12:26pm 36.9 25.2 -8.9 5 20.1 NNW 46 76 25 41 1004.1 1003.7 0.0
23/12:18pm 36.7 26.3 -9.0 5 20.0 NNW 39 76 21 41 1004.0 1003.6 0.0
23/12:05pm 36.3 26.3 -9.3 5 19.8 NNW 37 57 20 31 1004.4 1003.9 0.0
23/12:00pm 36.0 26.3 -9.5 5 19.7 NNW 35 50 19 27 1004.5 1004.0 0.0
23/11:30am 35.0 26.4 -7.9 6 18.9 NW 30 48 16 26 1005.1 1004.6 0.0
23/11:06am 33.6 25.3 -8.9 6 18.2 NW 28 46 15 25 1005.4 1005.0 0.0
23/11:00am 33.5 24.8 -9.0 6 18.2 NW 30 44 16 24 1005.5 1005.1 0.0
23/10:44am 33.2 24.9 -9.2 6 18.0 NW 28 46 15 25 1005.8 1005.4 0.0
23/10:30am 32.8 24.5 -9.4 6 17.8 NW 28 39 15 21 1006.0 1005.6 0.0
23/10:00am 31.3 22.1 -10.5 6 17.1 NNW 32 44 17 24 1006.2 1005.8 0.0
23/09:30am 29.5 21.9 -9.9 7 16.0 N 24 37 13 20 1006.7 1006.3 0.0
23/09:00am 28.0 20.7 -11.0 7 15.3 N 22 32 12 17 1006.9 1006.5 0.0
23/08:30am 25.1 18.3 -11.4 8 13.8 N 19 30 10 16 1007.1 1006.7 0.0
23/08:00am 23.4 16.9 -12.7 8 13.1 N 17 24 9 13 1007.3 1006.9 0.0
23/07:30am 22.3 15.4 -13.5 8 12.6 N 19 26 10 14 1007.2 1006.8 0.0
23/07:00am 21.7 14.2 -14.0 8 12.4 NNE 22 32 12 17 1007.0 1006.6 0.0
23/06:30am 21.5 14.0 -14.1 8 12.2 NNE 22 30 12 16 1006.8 1006.4 0.0
23/06:00am 21.1 14.0 -14.4 8 12.1 NNE 20 30 11 16 1007.0 1006.6 0.0
23/05:30am 21.0 13.9 -14.5 8 12.0 NNE 20 28 11 15 1007.1 1006.7 0.0
23/05:00am 21.2 14.3 -14.3 8 12.2 NNE 19 24 10 13 1007.1 1006.7 0.0
23/04:30am 21.3 14.4 -14.2 8 12.2 NNE 19 24 10 13 1007.3 1006.9 0.0
23/04:00am 21.2 15.0 -14.3 8 12.2 NNE 15 20 8 11 1007.4 1007.0 0.0
23/03:30am 22.5 15.9 -15.0 7 12.8 NNE 17 22 9 12 1007.5 1007.1 0.0
23/03:00am 23.3 16.4 -14.4 7 13.2 NNE 19 24 10 13 1007.8 1007.4 0.0
23/02:30am 23.2 16.1 -14.5 7 13.1 NNE 20 26 11 14 1008.1 1007.7 0.0
23/02:00am 23.5 16.4 -14.2 7 13.3 NNE 20 26 11 14 1008.5 1008.0 0.0
23/01:30am 22.5 15.9 -15.0 7 12.8 NNE 17 20 9 11 1008.8 1008.4 0.0
23/01:00am 21.5 15.0 -14.1 8 12.3 NNE 17 20 9 11 1009.0 1008.6 0.0
23/12:30am 21.5 15.0 -14.1 8 12.2 NNE 17 20 9 11 1009.0 1008.6 0.0
23/12:00am 22.4 15.8 -15.1 7 12.8 NNE 17 24 9 13 1009.2 1008.8 0.0
 
Date/Time
EST
Temp
°C
App
Temp
°C
Dew
Point
°C
Rel
Hum
%
Delta-T
°C
Wind Press
QNH
hPa
Press
MSL
hPa
Rain since
9am
mm
Dir  Spd
km/h
Gust
km/h
Spd
kts
Gust
kts
22/11:30pm 22.9 15.9 -14.7 7 13.0 NNE 19 24 10 13 1009.2 1008.8 0.0
22/11:00pm 23.0 16.0 -14.6 7 13.1 NNE 19 26 10 14 1009.3 1008.9 0.0
22/10:30pm 23.3 16.4 -14.4 7 13.2 NNE 19 26 10 14 1009.4 1009.0 0.0
22/10:00pm 24.1 17.1 -15.7 6 13.7 NNE 19 24 10 13 1009.5 1009.1 0.0
22/09:30pm 24.2 17.2 -15.6 6 13.8 NNE 19 26 10 14 1009.7 1009.3 0.0
22/09:00pm 24.2 17.6 -15.6 6 13.8 NNE 17 22 9 12 1009.8 1009.4 0.0
22/08:30pm 23.6 17.0 -14.2 7 13.3 NNE 17 20 9 11 1009.9 1009.5 0.0
22/08:00pm 23.7 17.5 -14.1 7 13.4 NNE 15 17 8 9 1009.9 1009.5 0.0
22/07:30pm 24.0 18.5 -15.7 6 13.7 NNE 11 13 6 7 1009.8 1009.4 0.0
22/07:00pm 25.4 19.6 -14.7 6 14.3 NNE 13 13 7 7 1009.6 1009.2 0.0
22/06:30pm 27.0 21.5 -15.8 5 15.2 N 11 15 6 8 1009.5 1009.1 0.0
22/06:00pm 29.4 23.1 -16.8 4 16.7 N 15 24 8 13 1009.1 1008.7 0.0
22/05:30pm 30.9 22.9 -15.8 4 17.4 N 24 33 13 18 1009.2 1008.8 0.0
22/05:00pm 31.5 23.4 -18.8 3 18.0 N 24 37 13 20 1009.3 1008.9 0.0
22/04:30pm 32.1 24.0 -18.4 3 18.2 N 24 35 13 19 1009.2 1008.8 0.0
22/04:00pm 32.0 23.9 -18.4 3 18.2 N 24 33 13 18 1009.4 1009.0 0.0
22/03:30pm 32.0 24.7 -18.4 3 18.2 N 20 30 11 16 1009.6 1009.2 0.0
22/03:00pm 32.0 24.3 -18.4 3 18.2 N 22 33 12 18 1010.1 1009.7 0.0
22/02:30pm 31.3 23.6 -18.9 3 17.8 NNW 22 35 12 19 1010.5 1010.1 0.0
22/02:00pm 31.3 24.1 -15.5 4 17.6 N 20 32 11 17 1011.1 1010.7 0.0
22/01:30pm 29.9 23.2 -16.5 4 16.9 N 17 26 9 14 1011.7 1011.3 0.0
22/01:00pm 30.6 23.0 -16.0 4 17.2 NNW 22 33 12 18 1012.0 1011.7 0.0
22/12:30pm 30.7 23.5 -15.9 4 17.3 N 20 30 11 16 1012.4 1012.0 0.0
22/12:00pm 30.2 22.6 -16.2 4 17.0 NNW 22 32 12 17 1012.9 1012.5 0.0
22/11:30am 29.5 22.6 -14.0 5 16.4 N 19 33 10 18 1013.0 1012.6 0.0
22/11:00am 28.7 21.2 -14.6 5 16.0 N 22 30 12 16 1013.7 1013.3 0.0

Other Formats:

Comma delimited format used in spreadsheet applications
http://www.bom.gov.au/fwo/IDN60801/IDN60801.94711.axf

JavaScript Object Notation format (JSON) in row-major order
http://www.bom.gov.au/fwo/IDN60801/IDN60801.94711.json